Time;durP1;ratioP1;P1;durP2;ratioP2;P2;SDS_P1;SDS_P2;PMS_P1;PMS_P2;Temp;Humidity;BMP_temperature;BMP_pressure;BME280_temperature;BME280_humidity;BME280_pressure;Samples;Min_cycle;Max_cycle;Signal;HPM_P1;HPM_P2
2022/07/08 00:02:19;;;;;;;;;;;538.20;1843.20;;;;;;5090145;28;19999;-58
2022/07/08 00:04:44;;;;;;;;;;;538.10;1868.80;;;;;;5090313;28;20305;-58
2022/07/08 00:07:10;;;;;;;;;;;538.10;1868.80;;;;;;5090331;28;19974;-61
2022/07/08 00:09:36;;;;;;;;;;;538.10;1868.80;;;;;;5090462;28;20365;-58
2022/07/08 00:12:01;;;;;;;;;;;538.10;1868.80;;;;;;5090052;28;20422;-58
2022/07/08 00:14:27;;;;;;;;;;;538.10;1894.40;;;;;;5090295;28;20350;-60
2022/07/08 00:16:52;;;;;;;;;;;538.00;1894.40;;;;;;5090467;28;19908;-57
2022/07/08 00:19:19;;;;;;;;;;;538.00;1894.40;;;;;;5090020;28;19919;-58
2022/07/08 00:21:46;;;;;;;;;;;538.00;1920.00;;;;;;5090340;28;19908;-57
2022/07/08 00:24:12;;;;;;;;;;;537.90;1920.00;;;;;;5090038;28;19916;-58
2022/07/08 00:26:38;;;;;;;;;;;538.00;1920.00;;;;;;5090017;28;19999;-59
2022/07/08 00:29:03;;;;;;;;;;;537.90;1920.00;;;;;;5090205;28;20409;-57
2022/07/08 00:31:29;;;;;;;;;;;538.00;1920.00;;;;;;5089950;28;19908;-57
2022/07/08 00:33:55;;;;;;;;;;;538.00;1920.00;;;;;;5090126;28;19936;-57
2022/07/08 00:36:21;;;;;;;;;;;538.00;1920.00;;;;;;5089947;28;19952;-58
2022/07/08 00:38:46;;;;;;;;;;;538.00;1920.00;;;;;;5090067;28;19919;-58
2022/07/08 00:41:12;;;;;;;;;;;537.90;1920.00;;;;;;5088796;28;19908;-57
2022/07/08 00:43:39;;;;;;;;;;;537.90;1945.60;;;;;;5089712;28;19967;-59
2022/07/08 00:46:04;;;;;;;;;;;537.90;1945.60;;;;;;5090178;28;19916;-58
2022/07/08 00:48:30;;;;;;;;;;;537.80;1945.60;;;;;;5089735;28;19908;-58
2022/07/08 00:50:58;;;;;;;;;;;537.70;1945.60;;;;;;5092987;28;19912;-58
2022/07/08 00:53:24;;;;;;;;;;;537.60;1971.20;;;;;;5093675;28;19908;-58
2022/07/08 00:55:49;;;;;;;;;;;537.60;1971.20;;;;;;5093484;28;19931;-59
2022/07/08 00:58:15;;;;;;;;;;;537.60;1971.20;;;;;;5093434;28;20282;-57
2022/07/08 01:00:41;;;;;;;;;;;537.60;1971.20;;;;;;5093079;28;19920;-58
2022/07/08 01:03:06;;;;;;;;;;;537.60;1971.20;;;;;;5093240;28;19969;-59
2022/07/08 01:05:32;;;;;;;;;;;512.90;1945.60;;;;;;5093462;28;19912;-58
2022/07/08 01:07:58;;;;;;;;;;;512.90;1945.60;;;;;;5093067;28;20316;-58
2022/07/08 01:10:23;;;;;;;;;;;512.90;1945.60;;;;;;5093285;28;19919;-59
2022/07/08 01:12:49;;;;;;;;;;;512.90;1945.60;;;;;;5093038;28;20361;-57
2022/07/08 01:15:15;;;;;;;;;;;512.80;1945.60;;;;;;5093179;28;19930;-59
2022/07/08 01:17:43;;;;;;;;;;;512.70;1945.60;;;;;;5092889;28;19914;-58
2022/07/08 01:20:10;;;;;;;;;;;512.70;1971.20;;;;;;5092778;28;20392;-57
2022/07/08 01:22:36;;;;;;;;;;;512.80;1945.60;;;;;;5093102;28;19916;-58
2022/07/08 01:25:01;;;;;;;;;;;512.80;1945.60;;;;;;5092707;28;19984;-59
2022/07/08 01:27:27;;;;;;;;;;;512.80;1945.60;;;;;;5092954;28;19947;-59
2022/07/08 01:29:53;;;;;;;;;;;512.70;1945.60;;;;;;5092970;28;19956;-58
2022/07/08 01:32:18;;;;;;;;;;;512.70;1945.60;;;;;;5092525;28;19908;-57
2022/07/08 01:34:44;;;;;;;;;;;512.70;1945.60;;;;;;5092832;28;20350;-58
2022/07/08 01:37:09;;;;;;;;;;;512.70;1945.60;;;;;;5092545;28;19908;-58
2022/07/08 01:39:35;;;;;;;;;;;512.70;1945.60;;;;;;5092590;28;20038;-57
2022/07/08 01:42:00;;;;;;;;;;;512.60;1971.20;;;;;;5092299;28;19912;-58
2022/07/08 01:44:26;;;;;;;;;;;512.50;1971.20;;;;;;5092467;28;19924;-57
2022/07/08 01:46:51;;;;;;;;;;;512.60;1971.20;;;;;;5092389;28;19912;-58
2022/07/08 01:49:17;;;;;;;;;;;512.50;1971.20;;;;;;5092468;28;19915;-57
2022/07/08 01:51:43;;;;;;;;;;;512.50;1971.20;;;;;;5092820;28;19908;-58
2022/07/08 01:54:08;;;;;;;;;;;512.40;1971.20;;;;;;5092396;28;20013;-58
2022/07/08 01:56:34;;;;;;;;;;;512.30;1996.80;;;;;;5092362;28;19951;-58
2022/07/08 01:58:59;;;;;;;;;;;512.30;1996.80;;;;;;5092106;28;19915;-58
2022/07/08 02:01:25;;;;;;;;;;;512.30;1996.80;;;;;;5091268;28;20289;-59
2022/07/08 02:03:50;;;;;;;;;;;512.20;1996.80;;;;;;5092174;28;19919;-58
2022/07/08 02:06:16;;;;;;;;;;;512.30;1996.80;;;;;;5092177;28;19973;-58
2022/07/08 02:08:41;;;;;;;;;;;512.20;2022.40;;;;;;5092190;28;19915;-57
2022/07/08 02:13:51;;;;;;;;;;;512.20;2022.40;;;;;;5091786;28;19919;-57
2022/07/08 02:16:17;;;;;;;;;;;512.20;2022.40;;;;;;5091803;28;20401;-58
2022/07/08 02:18:42;;;;;;;;;;;512.30;2022.40;;;;;;5092039;28;19915;-57
2022/07/08 02:21:08;;;;;;;;;;;512.20;2022.40;;;;;;5091617;28;19908;-58
2022/07/08 02:23:33;;;;;;;;;;;512.30;2022.40;;;;;;5091838;28;20383;-57
2022/07/08 02:25:59;;;;;;;;;;;512.20;2048.00;;;;;;5091687;28;20046;-56
2022/07/08 02:28:25;;;;;;;;;;;512.20;2073.60;;;;;;5091757;28;20358;-57
2022/07/08 02:30:50;;;;;;;;;;;512.20;2073.60;;;;;;5091362;28;20089;-58
2022/07/08 02:33:16;;;;;;;;;;;512.00;2124.80;;;;;;5089880;28;20018;-58
2022/07/08 02:35:42;;;;;;;;;;;512.00;2124.80;;;;;;5091647;28;19962;-58
2022/07/08 02:38:07;;;;;;;;;;;487.30;2150.40;;;;;;5091544;28;20023;-57
2022/07/08 02:40:33;;;;;;;;;;;512.00;2176.00;;;;;;5091370;28;19916;-57
2022/07/08 02:42:58;;;;;;;;;;;487.30;2201.60;;;;;;5091302;28;19912;-57
2022/07/08 02:45:24;;;;;;;;;;;487.30;2201.60;;;;;;5091405;28;19913;-58
2022/07/08 02:47:49;;;;;;;;;;;487.30;2252.80;;;;;;5091069;28;19909;-58
2022/07/08 02:50:15;;;;;;;;;;;487.30;2304.00;;;;;;5091385;28;19916;-59
2022/07/08 02:52:41;;;;;;;;;;;487.30;2304.00;;;;;;5091168;28;19953;-58
2022/07/08 02:55:07;;;;;;;;;;;487.20;2355.20;;;;;;5091514;28;19959;-58
2022/07/08 02:57:32;;;;;;;;;;;487.30;2380.80;;;;;;5091046;28;19976;-57
2022/07/08 02:59:58;;;;;;;;;;;487.30;2380.80;;;;;;5090966;28;19927;-57
2022/07/08 03:02:23;;;;;;;;;;;487.20;2380.80;;;;;;5091187;28;19915;-58
2022/07/08 03:04:49;;;;;;;;;;;487.20;2380.80;;;;;;5090885;28;20385;-57
2022/07/08 03:07:14;;;;;;;;;;;487.20;2380.80;;;;;;5091118;28;19908;-57
2022/07/08 03:09:40;;;;;;;;;;;487.20;2380.80;;;;;;5090860;28;20284;-59
2022/07/08 03:12:06;;;;;;;;;;;487.10;2380.80;;;;;;5090903;28;19923;-58
2022/07/08 03:14:31;;;;;;;;;;;487.20;2380.80;;;;;;5090847;28;20338;-58
2022/07/08 03:16:57;;;;;;;;;;;487.20;2380.80;;;;;;5090821;28;19912;-57
2022/07/08 03:19:23;;;;;;;;;;;487.10;2380.80;;;;;;5090814;28;19909;-58
2022/07/08 03:21:48;;;;;;;;;;;487.00;2380.80;;;;;;5090673;28;19916;-59
2022/07/08 03:24:14;;;;;;;;;;;487.00;2380.80;;;;;;5090702;28;19916;-58
2022/07/08 03:26:39;;;;;;;;;;;487.00;2380.80;;;;;;5090750;28;20354;-58
2022/07/08 03:29:05;;;;;;;;;;;487.00;2380.80;;;;;;5089443;28;19908;-58
2022/07/08 03:31:30;;;;;;;;;;;486.90;2380.80;;;;;;5090495;28;19995;-58
2022/07/08 03:33:56;;;;;;;;;;;486.90;2380.80;;;;;;5090701;28;19912;-58
2022/07/08 03:36:22;;;;;;;;;;;486.80;2380.80;;;;;;5090658;28;19908;-59
2022/07/08 03:38:48;;;;;;;;;;;486.80;2380.80;;;;;;5090628;28;20452;-58
2022/07/08 03:41:20;;;;;;;;;;;486.90;2380.80;;;;;;5090543;28;19912;-59
2022/07/08 03:43:46;;;;;;;;;;;486.90;2380.80;;;;;;5090556;28;20355;-58
2022/07/08 03:46:12;;;;;;;;;;;486.90;2380.80;;;;;;5090401;28;19908;-59
2022/07/08 03:48:37;;;;;;;;;;;486.90;2380.80;;;;;;5090534;28;20349;-57
2022/07/08 03:51:03;;;;;;;;;;;486.90;2380.80;;;;;;5090489;28;19913;-58
2022/07/08 03:53:28;;;;;;;;;;;486.90;2380.80;;;;;;5088976;28;19908;-58
2022/07/08 03:55:54;;;;;;;;;;;487.00;2380.80;;;;;;5090562;28;19915;-59
2022/07/08 03:58:19;;;;;;;;;;;487.00;2380.80;;;;;;5090319;28;20380;-58
2022/07/08 04:00:45;;;;;;;;;;;487.10;2380.80;;;;;;5090226;28;20290;-57
2022/07/08 04:03:11;;;;;;;;;;;487.00;2380.80;;;;;;5090063;28;19915;-59
2022/07/08 04:05:37;;;;;;;;;;;487.00;2380.80;;;;;;5090325;28;19916;-57
2022/07/08 04:08:03;;;;;;;;;;;487.00;2380.80;;;;;;5090484;28;19912;-58
2022/07/08 04:10:29;;;;;;;;;;;487.00;2380.80;;;;;;5089987;28;19969;-57
2022/07/08 04:12:55;;;;;;;;;;;487.00;2380.80;;;;;;5090407;28;19981;-59
2022/07/08 04:15:21;;;;;;;;;;;486.90;2380.80;;;;;;5090227;28;19955;-60
2022/07/08 04:17:47;;;;;;;;;;;486.90;2380.80;;;;;;5089948;28;19908;-58
2022/07/08 04:20:13;;;;;;;;;;;487.00;2380.80;;;;;;5090368;28;20381;-57
2022/07/08 04:22:38;;;;;;;;;;;487.00;2380.80;;;;;;5090325;28;19994;-59
2022/07/08 04:25:04;;;;;;;;;;;487.00;2380.80;;;;;;5092000;28;19916;-59
2022/07/08 04:27:30;;;;;;;;;;;486.90;2380.80;;;;;;5093902;28;19915;-59
2022/07/08 04:29:55;;;;;;;;;;;486.90;2380.80;;;;;;5094080;28;19912;-58
2022/07/08 04:32:21;;;;;;;;;;;486.90;2380.80;;;;;;5093780;28;19999;-59
2022/07/08 04:34:47;;;;;;;;;;;486.90;2380.80;;;;;;5093881;28;19953;-58
2022/07/08 04:37:13;;;;;;;;;;;487.00;2380.80;;;;;;5094005;28;20392;-59
2022/07/08 04:39:38;;;;;;;;;;;487.00;2380.80;;;;;;5093766;28;19915;-59
2022/07/08 04:42:04;;;;;;;;;;;487.00;2380.80;;;;;;5093832;28;20354;-60
2022/07/08 04:44:30;;;;;;;;;;;487.00;2380.80;;;;;;5093398;28;19968;-57
2022/07/08 04:46:56;;;;;;;;;;;487.00;2380.80;;;;;;5093718;28;19919;-59
2022/07/08 04:49:23;;;;;;;;;;;487.00;2380.80;;;;;;5093154;28;19912;-55
2022/07/08 04:51:49;;;;;;;;;;;487.10;2380.80;;;;;;5093437;28;19950;-58
2022/07/08 04:54:14;;;;;;;;;;;487.10;2380.80;;;;;;5093590;28;19957;-60
2022/07/08 04:56:40;;;;;;;;;;;487.10;2380.80;;;;;;5093442;28;19916;-58
2022/07/08 04:59:06;;;;;;;;;;;487.10;2380.80;;;;;;5093518;28;20374;-58
2022/07/08 05:01:32;;;;;;;;;;;487.30;2380.80;;;;;;5093093;28;19920;-58
2022/07/08 05:03:57;;;;;;;;;;;512.10;2380.80;;;;;;5093109;28;20289;-56
2022/07/08 05:06:23;;;;;;;;;;;512.30;2380.80;;;;;;5093652;28;20350;-56
2022/07/08 05:08:49;;;;;;;;;;;512.40;2380.80;;;;;;5093113;28;19999;-58
2022/07/08 05:11:14;;;;;;;;;;;512.50;2380.80;;;;;;5093303;28;19912;-57
2022/07/08 05:13:40;;;;;;;;;;;512.30;2380.80;;;;;;5093134;28;20358;-56
2022/07/08 05:16:06;;;;;;;;;;;512.30;2380.80;;;;;;5092862;28;20267;-58
2022/07/08 05:18:31;;;;;;;;;;;512.30;2380.80;;;;;;5092956;28;20377;-57
2022/07/08 05:20:57;;;;;;;;;;;512.30;2380.80;;;;;;5092943;28;19908;-57
2022/07/08 05:23:22;;;;;;;;;;;512.50;2380.80;;;;;;5093165;28;19916;-57
2022/07/08 05:25:48;;;;;;;;;;;512.60;2380.80;;;;;;5092819;28;20389;-58
2022/07/08 05:28:13;;;;;;;;;;;512.90;2380.80;;;;;;5092912;28;19908;-57
2022/07/08 05:30:39;;;;;;;;;;;512.70;2380.80;;;;;;5092719;28;19909;-60
2022/07/08 05:33:05;;;;;;;;;;;512.70;2380.80;;;;;;5092701;28;19907;-56
2022/07/08 05:35:30;;;;;;;;;;;512.60;2380.80;;;;;;5092028;28;19909;-58
2022/07/08 05:37:56;;;;;;;;;;;512.60;2380.80;;;;;;5092112;28;19915;-59
2022/07/08 05:40:21;;;;;;;;;;;512.70;2380.80;;;;;;5092258;28;19912;-60
2022/07/08 05:42:47;;;;;;;;;;;512.60;2380.80;;;;;;5092796;28;19920;-60
2022/07/08 05:45:13;;;;;;;;;;;512.60;2380.80;;;;;;5092563;28;19917;-59
2022/07/08 05:47:39;;;;;;;;;;;512.60;2380.80;;;;;;5092306;28;19909;-60
2022/07/08 05:50:05;;;;;;;;;;;512.70;2380.80;;;;;;5092453;28;19915;-59
2022/07/08 05:52:31;;;;;;;;;;;512.70;2380.80;;;;;;5092174;28;19912;-60
2022/07/08 05:54:57;;;;;;;;;;;512.70;2380.80;;;;;;5092216;28;20050;-60
2022/07/08 05:57:22;;;;;;;;;;;512.60;2380.80;;;;;;5092604;28;19915;-58
2022/07/08 05:59:50;;;;;;;;;;;512.80;2380.80;;;;;;5091523;28;19912;-56
2022/07/08 06:02:16;;;;;;;;;;;512.90;2380.80;;;;;;5092135;28;20286;-60
2022/07/08 06:04:42;;;;;;;;;;;537.60;2406.40;;;;;;5092375;28;19920;-60
2022/07/08 06:07:08;;;;;;;;;;;512.90;2380.80;;;;;;5092026;28;20415;-59
2022/07/08 06:09:33;;;;;;;;;;;537.70;2406.40;;;;;;5092110;28;20415;-59
2022/07/08 06:11:59;;;;;;;;;;;538.00;2406.40;;;;;;5091804;28;19912;-58
2022/07/08 06:14:25;;;;;;;;;;;537.90;2406.40;;;;;;5092133;28;19912;-59
2022/07/08 06:16:50;;;;;;;;;;;537.90;2406.40;;;;;;5091763;28;20274;-60
2022/07/08 06:19:16;;;;;;;;;;;537.80;2406.40;;;;;;5091903;28;20007;-59
2022/07/08 06:21:41;;;;;;;;;;;537.80;2406.40;;;;;;5091687;28;19915;-60
2022/07/08 06:24:07;;;;;;;;;;;537.70;2406.40;;;;;;5091492;28;19965;-59
2022/07/08 06:26:33;;;;;;;;;;;537.90;2406.40;;;;;;5091866;28;19907;-60
2022/07/08 06:28:58;;;;;;;;;;;538.00;2406.40;;;;;;5091561;28;19908;-57
2022/07/08 06:31:24;;;;;;;;;;;538.10;2406.40;;;;;;5091749;28;19970;-60
2022/07/08 06:33:56;;;;;;;;;;;538.20;2406.40;;;;;;5091552;28;20370;-60
2022/07/08 06:36:25;;;;;;;;;;;538.40;2406.40;;;;;;5091295;28;19908;-60
2022/07/08 06:38:51;;;;;;;;;;;538.30;2406.40;;;;;;5091297;28;19915;-61
2022/07/08 06:41:17;;;;;;;;;;;538.40;2406.40;;;;;;5091457;28;19922;-59
2022/07/08 06:43:43;;;;;;;;;;;538.50;2406.40;;;;;;5091501;28;20003;-59
2022/07/08 06:46:09;;;;;;;;;;;538.50;2406.40;;;;;;5091265;28;19912;-60
2022/07/08 06:48:34;;;;;;;;;;;538.40;2406.40;;;;;;5090903;28;19908;-59
2022/07/08 06:51:00;;;;;;;;;;;538.40;2406.40;;;;;;5089918;28;19914;-60
2022/07/08 06:53:25;;;;;;;;;;;538.50;2406.40;;;;;;5091514;28;20086;-59
2022/07/08 06:55:51;;;;;;;;;;;563.60;2432.00;;;;;;5091359;28;20324;-59
2022/07/08 06:58:16;;;;;;;;;;;563.40;2432.00;;;;;;5089987;28;20398;-60
2022/07/08 07:00:42;;;;;;;;;;;563.70;2432.00;;;;;;5089093;28;19920;-59
2022/07/08 07:03:08;;;;;;;;;;;588.90;2432.00;;;;;;5089293;28;19999;-59
2022/07/08 07:05:34;;;;;;;;;;;588.90;2432.00;;;;;;5089471;28;19912;-58
2022/07/08 07:07:59;;;;;;;;;;;589.00;2432.00;;;;;;5089285;28;19908;-60
2022/07/08 07:10:25;;;;;;;;;;;589.30;2432.00;;;;;;5087774;28;19912;-61
2022/07/08 07:12:50;;;;;;;;;;;589.40;2432.00;;;;;;5088888;28;19919;-60
2022/07/08 07:15:16;;;;;;;;;;;589.70;2432.00;;;;;;5089438;28;19923;-61
2022/07/08 07:17:42;;;;;;;;;;;589.70;2432.00;;;;;;5089284;28;19931;-60
2022/07/08 07:20:08;;;;;;;;;;;589.70;2406.40;;;;;;5089125;28;19912;-60
2022/07/08 07:22:34;;;;;;;;;;;589.70;2406.40;;;;;;5089247;28;19908;-60
2022/07/08 07:25:00;;;;;;;;;;;589.70;2406.40;;;;;;5088616;28;19923;-60
2022/07/08 07:27:25;;;;;;;;;;;589.50;2432.00;;;;;;5089136;28;19919;-60
2022/07/08 07:29:51;;;;;;;;;;;589.50;2432.00;;;;;;5089170;28;19944;-59
2022/07/08 07:32:17;;;;;;;;;;;589.30;2432.00;;;;;;5089147;28;20277;-60
2022/07/08 07:34:42;;;;;;;;;;;589.10;2432.00;;;;;;5089148;28;19908;-60
2022/07/08 07:37:08;;;;;;;;;;;564.10;2432.00;;;;;;5088514;28;19998;-58
2022/07/08 07:39:33;;;;;;;;;;;564.10;2432.00;;;;;;5089036;28;20389;-55
2022/07/08 07:41:59;;;;;;;;;;;588.90;2432.00;;;;;;5088786;28;19916;-60
2022/07/08 07:44:25;;;;;;;;;;;564.10;2432.00;;;;;;5089015;28;19967;-60
2022/07/08 07:46:51;;;;;;;;;;;563.70;2432.00;;;;;;5089115;28;19915;-59
2022/07/08 07:49:16;;;;;;;;;;;563.60;2432.00;;;;;;5089040;28;19955;-59
2022/07/08 07:51:42;;;;;;;;;;;564.00;2432.00;;;;;;5088404;28;19998;-59
2022/07/08 07:54:07;;;;;;;;;;;588.90;2432.00;;;;;;5088771;28;19912;-60
2022/07/08 07:56:33;;;;;;;;;;;589.00;2432.00;;;;;;5089091;28;19915;-58
2022/07/08 07:58:59;;;;;;;;;;;589.00;2432.00;;;;;;5088705;28;19965;-59
2022/07/08 08:01:24;;;;;;;;;;;588.90;2432.00;;;;;;5092920;28;19927;-57
2022/07/08 08:03:50;;;;;;;;;;;564.10;2432.00;;;;;;5092225;28;19916;-59
2022/07/08 08:06:16;;;;;;;;;;;564.10;2432.00;;;;;;5093158;28;19959;-60
2022/07/08 08:08:41;;;;;;;;;;;589.00;2432.00;;;;;;5092790;28;19915;-62
2022/07/08 08:11:07;;;;;;;;;;;588.90;2432.00;;;;;;5092804;28;19970;-60
2022/07/08 08:13:32;;;;;;;;;;;588.90;2432.00;;;;;;5092905;28;19975;-60
2022/07/08 08:15:58;;;;;;;;;;;588.90;2432.00;;;;;;5092261;28;19916;-60
2022/07/08 08:18:24;;;;;;;;;;;588.80;2432.00;;;;;;5092246;28;19912;-60
2022/07/08 08:20:49;;;;;;;;;;;564.00;2432.00;;;;;;5092457;28;20373;-59
2022/07/08 08:23:15;;;;;;;;;;;563.80;2432.00;;;;;;5091873;28;20263;-58
2022/07/08 08:25:43;;;;;;;;;;;563.70;2432.00;;;;;;5092277;28;19912;-59
2022/07/08 08:28:09;;;;;;;;;;;563.80;2432.00;;;;;;5091837;28;19912;-58
2022/07/08 08:30:35;;;;;;;;;;;563.70;2432.00;;;;;;5091836;28;19915;-59
2022/07/08 08:33:00;;;;;;;;;;;563.80;2432.00;;;;;;5091765;28;19920;-58
2022/07/08 08:35:26;;;;;;;;;;;563.90;2432.00;;;;;;5092053;28;19912;-59
2022/07/08 08:37:51;;;;;;;;;;;563.60;2432.00;;;;;;5092370;28;19955;-59
2022/07/08 08:40:18;;;;;;;;;;;563.30;2432.00;;;;;;5091640;28;19908;-59
2022/07/08 08:42:44;;;;;;;;;;;563.30;2432.00;;;;;;5091389;28;19916;-59
2022/07/08 08:45:10;;;;;;;;;;;563.30;2432.00;;;;;;5091293;28;19977;-59
2022/07/08 08:47:36;;;;;;;;;;;563.40;2432.00;;;;;;5090920;28;20358;-59
2022/07/08 08:52:52;;;;;;;;;;;563.60;2432.00;;;;;;5090441;28;21262;-59
2022/07/08 08:55:31;;;;;;;;;;;563.50;2432.00;;;;;;5088667;28;19965;-61
2022/07/08 08:57:58;;;;;;;;;;;563.60;2432.00;;;;;;5088556;28;19958;-58
2022/07/08 09:00:24;;;;;;;;;;;563.70;2432.00;;;;;;5090623;28;20461;-59
2022/07/08 09:02:51;;;;;;;;;;;563.70;2432.00;;;;;;5090393;28;19915;-59
2022/07/08 09:05:16;;;;;;;;;;;563.90;2432.00;;;;;;5090437;28;20332;-59
2022/07/08 09:07:43;;;;;;;;;;;563.90;2432.00;;;;;;5090261;28;19957;-59
2022/07/08 09:10:09;;;;;;;;;;;564.00;2432.00;;;;;;5089632;28;19908;-59
2022/07/08 09:12:35;;;;;;;;;;;564.10;2432.00;;;;;;5090515;28;20389;-60
2022/07/08 09:15:01;;;;;;;;;;;564.10;2432.00;;;;;;5090221;28;19912;-61
2022/07/08 09:17:27;;;;;;;;;;;588.80;2432.00;;;;;;5091518;28;20314;-60
2022/07/08 09:19:53;;;;;;;;;;;564.10;2432.00;;;;;;5091404;28;19915;-59
2022/07/08 09:22:22;;;;;;;;;;;588.90;2432.00;;;;;;5093606;28;19912;-60
2022/07/08 09:24:48;;;;;;;;;;;588.80;2432.00;;;;;;5093065;28;19916;-62
2022/07/08 09:27:14;;;;;;;;;;;564.10;2406.40;;;;;;5093194;28;19934;-60
2022/07/08 09:29:54;;;;;;;;;;;564.10;2432.00;;;;;;5092883;28;19962;-58
2022/07/08 09:32:20;;;;;;;;;;;564.10;2432.00;;;;;;5092668;28;19939;-59
2022/07/08 09:34:45;;;;;;;;;;;588.80;2432.00;;;;;;5092990;28;20380;-59
2022/07/08 09:37:12;;;;;;;;;;;564.10;2432.00;;;;;;5092712;28;19910;-59
2022/07/08 09:39:38;;;;;;;;;;;588.80;2432.00;;;;;;5092824;28;19908;-60
2022/07/08 09:42:07;;;;;;;;;;;564.10;2432.00;;;;;;5092865;28;19924;-60
2022/07/08 09:44:34;;;;;;;;;;;563.90;2432.00;;;;;;5092407;28;19980;-59
2022/07/08 09:46:59;;;;;;;;;;;588.90;2432.00;;;;;;5092278;28;19908;-60
2022/07/08 09:49:26;;;;;;;;;;;589.00;2432.00;;;;;;5090857;28;20011;-60
2022/07/08 09:51:52;;;;;;;;;;;589.00;2432.00;;;;;;5092460;28;19956;-61
2022/07/08 09:54:17;;;;;;;;;;;589.10;2432.00;;;;;;5092680;28;19908;-60
2022/07/08 09:56:55;;;;;;;;;;;588.90;2432.00;;;;;;5092453;28;19931;-60
2022/07/08 09:59:21;;;;;;;;;;;564.10;2432.00;;;;;;5092151;28;20010;-60
2022/07/08 10:01:47;;;;;;;;;;;564.00;2432.00;;;;;;5090960;28;19963;-58
2022/07/08 10:04:13;;;;;;;;;;;588.90;2432.00;;;;;;5092108;28;19916;-57
2022/07/08 10:06:39;;;;;;;;;;;588.80;2432.00;;;;;;5092116;28;19908;-59
2022/07/08 10:09:06;;;;;;;;;;;588.80;2432.00;;;;;;5092308;28;20001;-59
2022/07/08 10:11:31;;;;;;;;;;;564.10;2432.00;;;;;;5091924;28;19918;-59
2022/07/08 10:13:58;;;;;;;;;;;588.90;2432.00;;;;;;5092063;28;19997;-59
2022/07/08 10:16:24;;;;;;;;;;;589.00;2432.00;;;;;;5092236;28;19908;-60
2022/07/08 10:18:51;;;;;;;;;;;589.00;2432.00;;;;;;5091780;28;19909;-60
2022/07/08 10:21:21;;;;;;;;;;;589.30;2432.00;;;;;;5091832;28;19919;-60
2022/07/08 10:23:51;;;;;;;;;;;589.60;2432.00;;;;;;5091135;28;19916;-60
2022/07/08 10:26:18;;;;;;;;;;;589.70;2380.80;;;;;;5091762;28;20415;-60
2022/07/08 10:28:44;;;;;;;;;;;589.70;2406.40;;;;;;5091911;28;19915;-61
2022/07/08 10:31:19;;;;;;;;;;;614.40;2329.60;;;;;;5091563;28;19908;-60
2022/07/08 10:33:45;;;;;;;;;;;589.70;2329.60;;;;;;5091642;28;20007;-60
2022/07/08 10:36:11;;;;;;;;;;;614.50;2304.00;;;;;;5091554;28;20331;-60
2022/07/08 10:38:38;;;;;;;;;;;614.70;2252.80;;;;;;5091519;28;19943;-60
2022/07/08 10:41:05;;;;;;;;;;;614.60;2304.00;;;;;;5091295;28;20156;-60
2022/07/08 10:43:31;;;;;;;;;;;614.80;2252.80;;;;;;5091111;28;20007;-60
2022/07/08 10:46:04;;;;;;;;;;;614.90;2227.20;;;;;;5091522;28;20003;-60
2022/07/08 10:48:39;;;;;;;;;;;640.00;2227.20;;;;;;5090922;28;19908;-60
2022/07/08 10:51:05;;;;;;;;;;;615.00;2201.60;;;;;;5091344;28;19987;-60
2022/07/08 10:53:47;;;;;;;;;;;614.90;2176.00;;;;;;5090188;28;19977;-60
2022/07/08 10:56:13;;;;;;;;;;;615.10;2150.40;;;;;;5091236;28;20000;-59
2022/07/08 10:58:57;;;;;;;;;;;615.10;2176.00;;;;;;5090817;28;20354;-61
2022/07/08 11:01:25;;;;;;;;;;;615.10;2150.40;;;;;;5090734;28;20354;-59
2022/07/08 11:03:51;;;;;;;;;;;615.10;2150.40;;;;;;5090842;28;19970;-60
2022/07/08 11:06:32;;;;;;;;;;;640.00;2124.80;;;;;;5091194;28;19912;-60
2022/07/08 11:09:01;;;;;;;;;;;640.10;2099.20;;;;;;5091004;28;20501;-61
2022/07/08 11:11:27;;;;;;;;;;;640.00;2099.20;;;;;;5090831;28;19919;-60
2022/07/08 11:13:53;;;;;;;;;;;640.00;2099.20;;;;;;5090680;28;19913;-60
2022/07/08 11:16:20;;;;;;;;;;;640.40;2099.20;;;;;;5090906;28;20274;-60
2022/07/08 11:18:46;;;;;;;;;;;640.40;2048.00;;;;;;5090834;28;19908;-63
2022/07/08 11:21:11;;;;;;;;;;;640.50;2022.40;;;;;;5090809;28;19916;-63
2022/07/08 11:23:37;;;;;;;;;;;640.70;2022.40;;;;;;5090782;28;19916;-62
2022/07/08 11:26:02;;;;;;;;;;;640.80;2022.40;;;;;;5090412;28;19955;-61
2022/07/08 11:28:28;;;;;;;;;;;640.90;1996.80;;;;;;5090526;28;19908;-61
2022/07/08 11:30:53;;;;;;;;;;;640.80;1971.20;;;;;;5090648;28;19915;-60
2022/07/08 11:33:19;;;;;;;;;;;665.60;1996.80;;;;;;5090045;28;19908;-63
2022/07/08 11:35:45;;;;;;;;;;;665.60;1996.80;;;;;;5090009;28;19991;-59
2022/07/08 11:38:10;;;;;;;;;;;665.60;1971.20;;;;;;5090687;28;20289;-57
2022/07/08 11:40:42;;;;;;;;;;;665.80;1971.20;;;;;;5088441;28;19920;-62
2022/07/08 11:43:34;;;;;;;;;;;665.60;1971.20;;;;;;5089000;28;19912;-57
2022/07/08 11:46:00;;;;;;;;;;;640.90;1971.20;;;;;;5086653;28;20357;-60
2022/07/08 11:48:35;;;;;;;;;;;665.80;1971.20;;;;;;5089155;28;19970;-61
2022/07/08 11:51:01;;;;;;;;;;;665.60;1971.20;;;;;;5088812;28;19908;-61
2022/07/08 11:53:27;;;;;;;;;;;665.60;2022.40;;;;;;5088552;28;19923;-60
2022/07/08 11:55:52;;;;;;;;;;;665.80;1971.20;;;;;;5088809;28;19912;-60
2022/07/08 11:58:22;;;;;;;;;;;665.90;1945.60;;;;;;5088037;28;20765;-60
2022/07/08 12:00:48;;;;;;;;;;;665.80;1996.80;;;;;;5088893;28;20292;-60
2022/07/08 12:03:14;;;;;;;;;;;640.60;1971.20;;;;;;5088787;28;19908;-57
2022/07/08 12:05:39;;;;;;;;;;;665.60;1996.80;;;;;;5088170;28;19964;-61
2022/07/08 12:08:09;;;;;;;;;;;665.60;1971.20;;;;;;5088808;28;19916;-61
2022/07/08 12:10:34;;;;;;;;;;;665.90;1945.60;;;;;;5088767;28;19970;-60
2022/07/08 12:13:00;;;;;;;;;;;666.00;1945.60;;;;;;5088600;28;19952;-59
2022/07/08 12:15:33;;;;;;;;;;;666.30;1920.00;;;;;;5088753;28;19908;-60
2022/07/08 12:17:58;;;;;;;;;;;666.20;1920.00;;;;;;5088887;28;19908;-59
2022/07/08 12:20:34;;;;;;;;;;;666.10;1945.60;;;;;;5088425;28;19977;-61
2022/07/08 12:23:00;;;;;;;;;;;666.40;1894.40;;;;;;5088455;28;19911;-60
2022/07/08 12:25:25;;;;;;;;;;;666.40;1920.00;;;;;;5088574;28;19916;-60
2022/07/08 12:27:58;;;;;;;;;;;666.00;1920.00;;;;;;5088540;28;19946;-60
2022/07/08 12:30:30;;;;;;;;;;;665.90;1945.60;;;;;;5089058;28;19908;-60
2022/07/08 12:32:59;;;;;;;;;;;666.20;1894.40;;;;;;5090572;28;19961;-61
2022/07/08 12:35:29;;;;;;;;;;;666.30;1920.00;;;;;;5090255;28;19916;-59
2022/07/08 12:38:07;;;;;;;;;;;666.00;1920.00;;;;;;5090083;28;19915;-62
2022/07/08 12:40:37;;;;;;;;;;;665.90;1894.40;;;;;;5090048;28;19912;-59
2022/07/08 12:43:03;;;;;;;;;;;666.20;1894.40;;;;;;5090006;28;19997;-61
2022/07/08 12:45:29;;;;;;;;;;;665.90;1920.00;;;;;;5090526;28;19969;-60
2022/07/08 12:47:55;;;;;;;;;;;665.60;1945.60;;;;;;5093736;28;20297;-60
2022/07/08 12:50:20;;;;;;;;;;;665.60;1971.20;;;;;;5093401;28;19909;-60
2022/07/08 12:52:46;;;;;;;;;;;665.90;1971.20;;;;;;5093751;28;20388;-60
2022/07/08 12:55:12;;;;;;;;;;;666.20;1894.40;;;;;;5092734;28;19908;-60
2022/07/08 12:57:37;;;;;;;;;;;666.00;1920.00;;;;;;5093514;28;19908;-60
2022/07/08 13:00:03;;;;;;;;;;;666.00;1920.00;;;;;;5093406;28;19924;-59
2022/07/08 13:02:29;;;;;;;;;;;665.70;1920.00;;;;;;5091947;28;20338;-59
2022/07/08 13:04:54;;;;;;;;;;;640.90;1920.00;;;;;;5091631;28;19923;-61
2022/07/08 13:07:20;;;;;;;;;;;665.70;1920.00;;;;;;5091951;28;19920;-59
2022/07/08 13:09:46;;;;;;;;;;;665.60;1945.60;;;;;;5092038;28;20296;-61
2022/07/08 13:12:11;;;;;;;;;;;665.70;1971.20;;;;;;5091469;28;20022;-60
2022/07/08 13:14:37;;;;;;;;;;;665.90;1945.60;;;;;;5091828;28;20569;-60
2022/07/08 13:17:02;;;;;;;;;;;665.90;1920.00;;;;;;5090957;28;19912;-60
2022/07/08 13:19:28;;;;;;;;;;;665.80;1920.00;;;;;;5091391;28;19908;-60
2022/07/08 13:21:55;;;;;;;;;;;665.90;1945.60;;;;;;5091499;28;19915;-60
2022/07/08 13:24:20;;;;;;;;;;;666.10;1945.60;;;;;;5091501;28;19926;-59
2022/07/08 13:26:46;;;;;;;;;;;666.20;1920.00;;;;;;5091487;28;19979;-59
2022/07/08 13:29:11;;;;;;;;;;;665.60;1920.00;;;;;;5090891;28;19908;-59
2022/07/08 13:31:37;;;;;;;;;;;665.80;1945.60;;;;;;5091511;28;19939;-60
2022/07/08 13:34:03;;;;;;;;;;;640.90;1920.00;;;;;;5091270;28;19908;-60
2022/07/08 13:36:29;;;;;;;;;;;665.60;1945.60;;;;;;5091021;28;19908;-60
2022/07/08 13:38:54;;;;;;;;;;;665.60;1971.20;;;;;;5091251;28;19909;-63
2022/07/08 13:41:20;;;;;;;;;;;665.70;1945.60;;;;;;5090973;28;19916;-62
2022/07/08 13:43:46;;;;;;;;;;;665.60;1971.20;;;;;;5090676;28;19963;-60